sensor_id;sensor_type;location;lat;lon;timestamp;P1;durP1;ratioP1;P2;durP2;ratioP2
4102;SDS011;2065;49.790;9.620;2022-10-16T00:01:16;1.60;;;1.50;;
4102;SDS011;2065;49.790;9.620;2022-10-16T00:03:45;4.93;;;2.00;;
4102;SDS011;2065;49.790;9.620;2022-10-16T00:06:13;1.90;;;1.60;;
4102;SDS011;2065;49.790;9.620;2022-10-16T00:08:42;2.10;;;1.90;;
4102;SDS011;2065;49.790;9.620;2022-10-16T00:11:10;1.93;;;1.83;;
4102;SDS011;2065;49.790;9.620;2022-10-16T00:13:39;1.80;;;1.70;;
4102;SDS011;2065;49.790;9.620;2022-10-16T00:16:08;1.77;;;1.60;;
4102;SDS011;2065;49.790;9.620;2022-10-16T00:18:37;2.97;;;2.17;;
4102;SDS011;2065;49.790;9.620;2022-10-16T00:21:06;1.90;;;1.80;;
4102;SDS011;2065;49.790;9.620;2022-10-16T00:23:54;1.73;;;1.63;;
4102;SDS011;2065;49.790;9.620;2022-10-16T00:26:22;4.20;;;1.80;;
4102;SDS011;2065;49.790;9.620;2022-10-16T00:28:50;1.93;;;1.83;;
4102;SDS011;2065;49.790;9.620;2022-10-16T00:31:18;1.70;;;1.60;;
4102;SDS011;2065;49.790;9.620;2022-10-16T00:33:48;1.70;;;1.60;;
4102;SDS011;2065;49.790;9.620;2022-10-16T00:36:17;4.90;;;1.70;;
4102;SDS011;2065;49.790;9.620;2022-10-16T00:38:45;2.00;;;1.90;;
4102;SDS011;2065;49.790;9.620;2022-10-16T00:41:14;1.90;;;1.80;;
4102;SDS011;2065;49.790;9.620;2022-10-16T00:43:44;10.30;;;2.00;;
4102;SDS011;2065;49.790;9.620;2022-10-16T00:46:16;2.23;;;1.47;;
4102;SDS011;2065;49.790;9.620;2022-10-16T00:48:48;2.27;;;1.60;;
4102;SDS011;2065;49.790;9.620;2022-10-16T00:51:19;1.63;;;1.40;;
4102;SDS011;2065;49.790;9.620;2022-10-16T00:53:49;2.60;;;1.43;;
4102;SDS011;2065;49.790;9.620;2022-10-16T00:56:17;1.47;;;1.10;;
4102;SDS011;2065;49.790;9.620;2022-10-16T00:58:44;1.50;;;1.20;;
4102;SDS011;2065;49.790;9.620;2022-10-16T01:01:12;1.37;;;1.27;;
4102;SDS011;2065;49.790;9.620;2022-10-16T01:03:39;1.70;;;1.60;;
4102;SDS011;2065;49.790;9.620;2022-10-16T01:06:12;2.07;;;1.50;;
4102;SDS011;2065;49.790;9.620;2022-10-16T01:08:52;1.40;;;1.30;;
4102;SDS011;2065;49.790;9.620;2022-10-16T01:11:34;1.60;;;1.40;;
4102;SDS011;2065;49.790;9.620;2022-10-16T01:14:09;3.73;;;1.20;;
4102;SDS011;2065;49.790;9.620;2022-10-16T01:16:47;8.57;;;1.73;;
4102;SDS011;2065;49.790;9.620;2022-10-16T01:19:20;1.63;;;1.53;;
4102;SDS011;2065;49.790;9.620;2022-10-16T01:22:01;1.43;;;1.33;;
4102;SDS011;2065;49.790;9.620;2022-10-16T01:24:31;1.20;;;1.10;;
4102;SDS011;2065;49.790;9.620;2022-10-16T01:27:07;1.43;;;1.33;;
4102;SDS011;2065;49.790;9.620;2022-10-16T01:29:39;3.77;;;1.40;;
4102;SDS011;2065;49.790;9.620;2022-10-16T01:32:16;3.10;;;1.13;;
4102;SDS011;2065;49.790;9.620;2022-10-16T01:34:48;3.20;;;0.90;;
4102;SDS011;2065;49.790;9.620;2022-10-16T01:37:32;1.53;;;0.90;;
4102;SDS011;2065;49.790;9.620;2022-10-16T01:40:05;1.10;;;1.00;;
4102;SDS011;2065;49.790;9.620;2022-10-16T01:42:37;0.80;;;0.80;;
4102;SDS011;2065;49.790;9.620;2022-10-16T01:45:07;0.80;;;0.80;;
4102;SDS011;2065;49.790;9.620;2022-10-16T01:47:38;0.80;;;0.80;;
4102;SDS011;2065;49.790;9.620;2022-10-16T01:50:07;5.10;;;0.90;;
4102;SDS011;2065;49.790;9.620;2022-10-16T01:52:35;0.80;;;0.77;;
4102;SDS011;2065;49.790;9.620;2022-10-16T01:55:06;1.10;;;0.90;;
4102;SDS011;2065;49.790;9.620;2022-10-16T01:57:38;2.03;;;0.90;;
4102;SDS011;2065;49.790;9.620;2022-10-16T02:00:10;1.10;;;1.00;;
4102;SDS011;2065;49.790;9.620;2022-10-16T02:02:40;0.93;;;0.80;;
4102;SDS011;2065;49.790;9.620;2022-10-16T02:05:10;2.80;;;0.90;;
4102;SDS011;2065;49.790;9.620;2022-10-16T02:07:42;1.20;;;1.10;;
4102;SDS011;2065;49.790;9.620;2022-10-16T02:10:09;2.13;;;0.90;;
4102;SDS011;2065;49.790;9.620;2022-10-16T02:12:40;1.10;;;1.00;;
4102;SDS011;2065;49.790;9.620;2022-10-16T02:15:10;1.10;;;1.00;;
4102;SDS011;2065;49.790;9.620;2022-10-16T02:17:38;1.10;;;1.00;;
4102;SDS011;2065;49.790;9.620;2022-10-16T02:20:05;1.10;;;1.00;;
4102;SDS011;2065;49.790;9.620;2022-10-16T02:22:33;1.20;;;1.10;;
4102;SDS011;2065;49.790;9.620;2022-10-16T02:25:05;1.00;;;0.90;;
4102;SDS011;2065;49.790;9.620;2022-10-16T02:27:38;2.80;;;1.20;;
4102;SDS011;2065;49.790;9.620;2022-10-16T02:30:14;1.27;;;0.80;;
4102;SDS011;2065;49.790;9.620;2022-10-16T02:32:47;1.53;;;1.13;;
4102;SDS011;2065;49.790;9.620;2022-10-16T02:35:15;1.10;;;1.00;;
4102;SDS011;2065;49.790;9.620;2022-10-16T02:37:44;3.17;;;0.93;;
4102;SDS011;2065;49.790;9.620;2022-10-16T02:40:13;1.10;;;1.00;;
4102;SDS011;2065;49.790;9.620;2022-10-16T02:42:42;1.13;;;0.97;;
4102;SDS011;2065;49.790;9.620;2022-10-16T02:45:10;1.20;;;1.10;;
4102;SDS011;2065;49.790;9.620;2022-10-16T02:47:38;1.40;;;1.07;;
4102;SDS011;2065;49.790;9.620;2022-10-16T02:50:05;1.50;;;1.00;;
4102;SDS011;2065;49.790;9.620;2022-10-16T02:52:33;3.23;;;1.20;;
4102;SDS011;2065;49.790;9.620;2022-10-16T02:55:00;1.10;;;1.00;;
4102;SDS011;2065;49.790;9.620;2022-10-16T02:57:27;4.10;;;1.40;;
4102;SDS011;2065;49.790;9.620;2022-10-16T02:59:56;1.20;;;1.00;;
4102;SDS011;2065;49.790;9.620;2022-10-16T03:02:23;1.30;;;1.20;;
4102;SDS011;2065;49.790;9.620;2022-10-16T03:04:50;1.70;;;1.33;;
4102;SDS011;2065;49.790;9.620;2022-10-16T03:07:17;3.70;;;1.43;;
4102;SDS011;2065;49.790;9.620;2022-10-16T03:09:44;2.60;;;1.50;;
4102;SDS011;2065;49.790;9.620;2022-10-16T03:12:12;1.37;;;1.27;;
4102;SDS011;2065;49.790;9.620;2022-10-16T03:14:39;1.73;;;1.50;;
4102;SDS011;2065;49.790;9.620;2022-10-16T03:17:07;1.77;;;1.57;;
4102;SDS011;2065;49.790;9.620;2022-10-16T03:19:34;6.83;;;1.63;;
4102;SDS011;2065;49.790;9.620;2022-10-16T03:22:01;4.77;;;1.87;;
4102;SDS011;2065;49.790;9.620;2022-10-16T03:24:28;1.73;;;1.63;;
4102;SDS011;2065;49.790;9.620;2022-10-16T03:26:56;3.30;;;1.40;;
4102;SDS011;2065;49.790;9.620;2022-10-16T03:29:23;3.80;;;1.60;;
4102;SDS011;2065;49.790;9.620;2022-10-16T03:31:51;3.10;;;1.83;;
4102;SDS011;2065;49.790;9.620;2022-10-16T03:34:20;3.00;;;1.80;;
4102;SDS011;2065;49.790;9.620;2022-10-16T03:36:48;1.93;;;1.43;;
4102;SDS011;2065;49.790;9.620;2022-10-16T03:39:15;1.57;;;1.47;;
4102;SDS011;2065;49.790;9.620;2022-10-16T03:41:42;3.70;;;1.87;;
4102;SDS011;2065;49.790;9.620;2022-10-16T03:44:09;2.30;;;1.93;;
4102;SDS011;2065;49.790;9.620;2022-10-16T03:46:37;1.57;;;1.47;;
4102;SDS011;2065;49.790;9.620;2022-10-16T03:49:04;2.20;;;2.00;;
4102;SDS011;2065;49.790;9.620;2022-10-16T03:51:32;4.50;;;1.80;;
4102;SDS011;2065;49.790;9.620;2022-10-16T03:54:00;1.90;;;1.80;;
4102;SDS011;2065;49.790;9.620;2022-10-16T03:56:27;1.73;;;1.60;;
4102;SDS011;2065;49.790;9.620;2022-10-16T03:58:54;2.47;;;2.27;;
4102;SDS011;2065;49.790;9.620;2022-10-16T04:01:21;3.97;;;2.17;;
4102;SDS011;2065;49.790;9.620;2022-10-16T04:03:48;2.00;;;1.60;;
4102;SDS011;2065;49.790;9.620;2022-10-16T04:06:15;2.10;;;1.70;;
4102;SDS011;2065;49.790;9.620;2022-10-16T04:08:44;5.93;;;1.93;;
4102;SDS011;2065;49.790;9.620;2022-10-16T04:11:11;2.17;;;1.70;;
4102;SDS011;2065;49.790;9.620;2022-10-16T04:13:38;2.43;;;1.80;;
4102;SDS011;2065;49.790;9.620;2022-10-16T04:16:06;1.60;;;1.50;;
4102;SDS011;2065;49.790;9.620;2022-10-16T04:18:33;1.70;;;1.60;;
4102;SDS011;2065;49.790;9.620;2022-10-16T04:21:04;4.60;;;2.07;;
4102;SDS011;2065;49.790;9.620;2022-10-16T04:23:32;1.83;;;1.63;;
4102;SDS011;2065;49.790;9.620;2022-10-16T04:26:00;2.13;;;1.63;;
4102;SDS011;2065;49.790;9.620;2022-10-16T04:28:28;6.10;;;1.60;;
4102;SDS011;2065;49.790;9.620;2022-10-16T04:30:55;1.93;;;1.63;;
4102;SDS011;2065;49.790;9.620;2022-10-16T04:33:22;2.00;;;1.70;;
4102;SDS011;2065;49.790;9.620;2022-10-16T04:35:55;2.50;;;2.00;;
4102;SDS011;2065;49.790;9.620;2022-10-16T04:38:23;2.40;;;2.13;;
4102;SDS011;2065;49.790;9.620;2022-10-16T04:40:50;3.23;;;2.87;;
4102;SDS011;2065;49.790;9.620;2022-10-16T04:43:19;5.83;;;3.20;;
4102;SDS011;2065;49.790;9.620;2022-10-16T04:45:47;3.13;;;2.00;;
4102;SDS011;2065;49.790;9.620;2022-10-16T04:48:15;2.80;;;1.87;;
4102;SDS011;2065;49.790;9.620;2022-10-16T04:50:43;2.00;;;1.90;;
4102;SDS011;2065;49.790;9.620;2022-10-16T04:53:10;2.37;;;1.80;;
4102;SDS011;2065;49.790;9.620;2022-10-16T04:55:38;2.77;;;1.67;;
4102;SDS011;2065;49.790;9.620;2022-10-16T04:58:05;2.60;;;1.80;;
4102;SDS011;2065;49.790;9.620;2022-10-16T05:00:33;1.63;;;1.53;;
4102;SDS011;2065;49.790;9.620;2022-10-16T05:03:01;4.40;;;2.00;;
4102;SDS011;2065;49.790;9.620;2022-10-16T05:05:31;1.80;;;1.70;;
4102;SDS011;2065;49.790;9.620;2022-10-16T05:07:58;1.70;;;1.60;;
4102;SDS011;2065;49.790;9.620;2022-10-16T05:10:25;4.70;;;2.03;;
4102;SDS011;2065;49.790;9.620;2022-10-16T05:12:53;3.60;;;2.50;;
4102;SDS011;2065;49.790;9.620;2022-10-16T05:15:20;2.87;;;2.57;;
4102;SDS011;2065;49.790;9.620;2022-10-16T05:17:53;2.63;;;2.40;;
4102;SDS011;2065;49.790;9.620;2022-10-16T05:20:20;2.80;;;2.40;;
4102;SDS011;2065;49.790;9.620;2022-10-16T05:22:48;2.10;;;2.00;;
4102;SDS011;2065;49.790;9.620;2022-10-16T05:25:15;2.73;;;2.20;;
4102;SDS011;2065;49.790;9.620;2022-10-16T05:27:46;1.87;;;1.50;;
4102;SDS011;2065;49.790;9.620;2022-10-16T05:30:14;2.17;;;1.97;;
4102;SDS011;2065;49.790;9.620;2022-10-16T05:32:46;8.50;;;1.97;;
4102;SDS011;2065;49.790;9.620;2022-10-16T05:35:15;3.50;;;1.80;;
4102;SDS011;2065;49.790;9.620;2022-10-16T05:37:44;2.10;;;1.90;;
4102;SDS011;2065;49.790;9.620;2022-10-16T05:40:12;2.30;;;1.40;;
4102;SDS011;2065;49.790;9.620;2022-10-16T05:42:39;2.20;;;1.50;;
4102;SDS011;2065;49.790;9.620;2022-10-16T05:45:08;1.60;;;1.50;;
4102;SDS011;2065;49.790;9.620;2022-10-16T05:47:37;4.80;;;1.70;;
4102;SDS011;2065;49.790;9.620;2022-10-16T05:50:04;7.20;;;3.97;;
4102;SDS011;2065;49.790;9.620;2022-10-16T05:52:33;4.53;;;3.93;;
4102;SDS011;2065;49.790;9.620;2022-10-16T05:55:00;14.00;;;11.00;;
4102;SDS011;2065;49.790;9.620;2022-10-16T05:57:27;126.07;;;78.40;;
4102;SDS011;2065;49.790;9.620;2022-10-16T05:59:54;86.67;;;53.00;;
4102;SDS011;2065;49.790;9.620;2022-10-16T06:02:21;40.23;;;30.50;;
4102;SDS011;2065;49.790;9.620;2022-10-16T06:04:49;26.17;;;18.30;;
4102;SDS011;2065;49.790;9.620;2022-10-16T06:07:18;15.10;;;9.13;;
4102;SDS011;2065;49.790;9.620;2022-10-16T06:09:49;7.43;;;5.93;;
4102;SDS011;2065;49.790;9.620;2022-10-16T06:12:16;9.47;;;8.07;;
4102;SDS011;2065;49.790;9.620;2022-10-16T06:14:44;15.00;;;6.37;;
4102;SDS011;2065;49.790;9.620;2022-10-16T06:17:12;9.67;;;7.30;;
4102;SDS011;2065;49.790;9.620;2022-10-16T06:19:40;17.40;;;7.97;;
4102;SDS011;2065;49.790;9.620;2022-10-16T06:22:07;14.07;;;7.00;;
4102;SDS011;2065;49.790;9.620;2022-10-16T06:24:34;9.33;;;7.43;;
4102;SDS011;2065;49.790;9.620;2022-10-16T06:27:04;19.67;;;12.60;;
4102;SDS011;2065;49.790;9.620;2022-10-16T06:29:31;25.90;;;17.90;;
4102;SDS011;2065;49.790;9.620;2022-10-16T06:31:59;20.27;;;14.60;;
4102;SDS011;2065;49.790;9.620;2022-10-16T06:34:26;36.90;;;22.93;;
4102;SDS011;2065;49.790;9.620;2022-10-16T06:36:53;32.87;;;16.43;;
4102;SDS011;2065;49.790;9.620;2022-10-16T06:39:20;18.83;;;11.90;;
4102;SDS011;2065;49.790;9.620;2022-10-16T06:41:47;9.23;;;6.27;;
4102;SDS011;2065;49.790;9.620;2022-10-16T06:44:16;6.63;;;5.80;;
4102;SDS011;2065;49.790;9.620;2022-10-16T06:46:43;9.37;;;6.40;;
4102;SDS011;2065;49.790;9.620;2022-10-16T06:49:10;8.40;;;6.30;;
4102;SDS011;2065;49.790;9.620;2022-10-16T06:51:37;10.03;;;7.60;;
4102;SDS011;2065;49.790;9.620;2022-10-16T06:54:06;10.03;;;8.73;;
4102;SDS011;2065;49.790;9.620;2022-10-16T06:56:33;10.53;;;8.20;;
4102;SDS011;2065;49.790;9.620;2022-10-16T06:59:01;9.40;;;8.43;;
4102;SDS011;2065;49.790;9.620;2022-10-16T07:01:30;13.60;;;10.00;;
4102;SDS011;2065;49.790;9.620;2022-10-16T07:03:58;13.20;;;11.33;;
4102;SDS011;2065;49.790;9.620;2022-10-16T07:06:26;14.97;;;13.40;;
4102;SDS011;2065;49.790;9.620;2022-10-16T07:08:56;8.10;;;7.30;;
4102;SDS011;2065;49.790;9.620;2022-10-16T07:11:24;13.10;;;11.03;;
4102;SDS011;2065;49.790;9.620;2022-10-16T07:13:51;26.50;;;22.70;;
4102;SDS011;2065;49.790;9.620;2022-10-16T07:16:19;18.70;;;16.73;;
4102;SDS011;2065;49.790;9.620;2022-10-16T07:18:48;20.90;;;15.77;;
4102;SDS011;2065;49.790;9.620;2022-10-16T07:21:17;5.53;;;5.00;;
4102;SDS011;2065;49.790;9.620;2022-10-16T07:23:46;4.80;;;3.10;;
4102;SDS011;2065;49.790;9.620;2022-10-16T07:26:16;3.60;;;3.37;;
4102;SDS011;2065;49.790;9.620;2022-10-16T07:28:44;2.50;;;2.00;;
4102;SDS011;2065;49.790;9.620;2022-10-16T07:31:11;17.80;;;8.50;;
4102;SDS011;2065;49.790;9.620;2022-10-16T07:33:41;11.70;;;5.93;;
4102;SDS011;2065;49.790;9.620;2022-10-16T07:36:11;9.47;;;7.90;;
4102;SDS011;2065;49.790;9.620;2022-10-16T07:38:39;14.90;;;6.50;;
4102;SDS011;2065;49.790;9.620;2022-10-16T07:41:08;5.60;;;4.17;;
4102;SDS011;2065;49.790;9.620;2022-10-16T07:43:37;10.47;;;3.97;;
4102;SDS011;2065;49.790;9.620;2022-10-16T07:46:05;4.83;;;3.63;;
4102;SDS011;2065;49.790;9.620;2022-10-16T07:48:33;12.07;;;6.03;;
4102;SDS011;2065;49.790;9.620;2022-10-16T07:51:01;9.60;;;5.23;;
4102;SDS011;2065;49.790;9.620;2022-10-16T07:53:31;9.50;;;5.73;;
4102;SDS011;2065;49.790;9.620;2022-10-16T07:55:59;15.50;;;5.13;;
4102;SDS011;2065;49.790;9.620;2022-10-16T07:58:27;16.07;;;8.83;;
4102;SDS011;2065;49.790;9.620;2022-10-16T08:00:55;23.10;;;12.33;;
4102;SDS011;2065;49.790;9.620;2022-10-16T08:03:22;13.37;;;8.47;;
4102;SDS011;2065;49.790;9.620;2022-10-16T08:05:50;19.03;;;10.80;;
4102;SDS011;2065;49.790;9.620;2022-10-16T08:08:17;13.40;;;6.83;;
4102;SDS011;2065;49.790;9.620;2022-10-16T08:10:46;18.57;;;9.07;;
4102;SDS011;2065;49.790;9.620;2022-10-16T08:13:14;9.40;;;7.40;;
4102;SDS011;2065;49.790;9.620;2022-10-16T08:15:41;6.37;;;3.60;;
4102;SDS011;2065;49.790;9.620;2022-10-16T08:18:08;6.10;;;3.60;;
4102;SDS011;2065;49.790;9.620;2022-10-16T08:20:37;5.30;;;3.23;;
4102;SDS011;2065;49.790;9.620;2022-10-16T08:23:05;10.47;;;9.20;;
4102;SDS011;2065;49.790;9.620;2022-10-16T08:25:34;4.53;;;4.13;;
4102;SDS011;2065;49.790;9.620;2022-10-16T08:28:04;7.27;;;4.50;;
4102;SDS011;2065;49.790;9.620;2022-10-16T08:30:31;7.37;;;5.43;;
4102;SDS011;2065;49.790;9.620;2022-10-16T08:32:59;5.27;;;3.90;;
4102;SDS011;2065;49.790;9.620;2022-10-16T08:35:26;4.37;;;3.97;;
4102;SDS011;2065;49.790;9.620;2022-10-16T08:37:53;9.87;;;6.10;;
4102;SDS011;2065;49.790;9.620;2022-10-16T08:40:20;5.87;;;5.07;;
4102;SDS011;2065;49.790;9.620;2022-10-16T08:42:53;3.63;;;3.43;;
4102;SDS011;2065;49.790;9.620;2022-10-16T08:45:35;4.17;;;2.40;;
4102;SDS011;2065;49.790;9.620;2022-10-16T08:48:17;5.80;;;3.23;;
4102;SDS011;2065;49.790;9.620;2022-10-16T08:50:49;3.10;;;2.90;;
4102;SDS011;2065;49.790;9.620;2022-10-16T08:53:19;2.43;;;2.23;;
4102;SDS011;2065;49.790;9.620;2022-10-16T08:55:51;3.90;;;2.37;;
4102;SDS011;2065;49.790;9.620;2022-10-16T08:58:20;7.80;;;4.90;;
4102;SDS011;2065;49.790;9.620;2022-10-16T09:00:52;4.10;;;3.67;;
4102;SDS011;2065;49.790;9.620;2022-10-16T09:03:23;2.63;;;2.43;;
4102;SDS011;2065;49.790;9.620;2022-10-16T09:06:17;6.20;;;4.20;;
4102;SDS011;2065;49.790;9.620;2022-10-16T09:09:12;3.00;;;2.60;;
4102;SDS011;2065;49.790;9.620;2022-10-16T09:12:02;12.33;;;7.47;;
4102;SDS011;2065;49.790;9.620;2022-10-16T09:14:38;3.50;;;3.20;;
4102;SDS011;2065;49.790;9.620;2022-10-16T09:17:26;2.77;;;2.57;;
4102;SDS011;2065;49.790;9.620;2022-10-16T09:20:06;2.67;;;2.47;;
4102;SDS011;2065;49.790;9.620;2022-10-16T09:22:42;3.70;;;2.10;;
4102;SDS011;2065;49.790;9.620;2022-10-16T09:25:11;2.17;;;1.97;;
4102;SDS011;2065;49.790;9.620;2022-10-16T09:27:39;3.73;;;3.43;;
4102;SDS011;2065;49.790;9.620;2022-10-16T09:30:11;108.10;;;50.07;;
4102;SDS011;2065;49.790;9.620;2022-10-16T09:32:41;16.83;;;9.10;;
4102;SDS011;2065;49.790;9.620;2022-10-16T09:35:11;8.50;;;5.43;;
4102;SDS011;2065;49.790;9.620;2022-10-16T09:37:40;13.73;;;9.50;;
4102;SDS011;2065;49.790;9.620;2022-10-16T09:40:12;7.70;;;3.30;;
4102;SDS011;2065;49.790;9.620;2022-10-16T09:42:40;5.00;;;3.23;;
4102;SDS011;2065;49.790;9.620;2022-10-16T09:45:18;6.10;;;3.70;;
4102;SDS011;2065;49.790;9.620;2022-10-16T09:47:50;5.17;;;3.50;;
4102;SDS011;2065;49.790;9.620;2022-10-16T09:50:22;3.20;;;2.90;;
4102;SDS011;2065;49.790;9.620;2022-10-16T09:53:02;6.87;;;4.97;;
4102;SDS011;2065;49.790;9.620;2022-10-16T09:55:47;2.90;;;2.63;;
4102;SDS011;2065;49.790;9.620;2022-10-16T09:58:14;3.50;;;3.30;;
4102;SDS011;2065;49.790;9.620;2022-10-16T10:00:41;4.10;;;3.00;;
4102;SDS011;2065;49.790;9.620;2022-10-16T10:03:16;4.67;;;3.10;;
4102;SDS011;2065;49.790;9.620;2022-10-16T10:06:06;3.00;;;2.80;;
4102;SDS011;2065;49.790;9.620;2022-10-16T10:08:56;10.40;;;3.13;;
4102;SDS011;2065;49.790;9.620;2022-10-16T10:11:42;11.83;;;4.90;;
4102;SDS011;2065;49.790;9.620;2022-10-16T10:14:20;6.93;;;4.77;;
4102;SDS011;2065;49.790;9.620;2022-10-16T10:16:49;6.47;;;3.30;;
4102;SDS011;2065;49.790;9.620;2022-10-16T10:19:19;12.43;;;7.50;;
4102;SDS011;2065;49.790;9.620;2022-10-16T10:21:47;8.50;;;5.43;;
4102;SDS011;2065;49.790;9.620;2022-10-16T10:24:15;2.57;;;2.37;;
4102;SDS011;2065;49.790;9.620;2022-10-16T10:26:49;4.43;;;2.67;;
4102;SDS011;2065;49.790;9.620;2022-10-16T10:29:24;3.87;;;2.50;;
4102;SDS011;2065;49.790;9.620;2022-10-16T10:32:04;2.43;;;1.90;;
4102;SDS011;2065;49.790;9.620;2022-10-16T10:34:46;1.77;;;1.63;;
4102;SDS011;2065;49.790;9.620;2022-10-16T10:37:28;3.60;;;2.20;;
4102;SDS011;2065;49.790;9.620;2022-10-16T10:40:13;2.73;;;2.27;;
4102;SDS011;2065;49.790;9.620;2022-10-16T10:42:50;2.27;;;2.07;;
4102;SDS011;2065;49.790;9.620;2022-10-16T10:45:26;2.73;;;2.40;;
4102;SDS011;2065;49.790;9.620;2022-10-16T10:50:48;2.10;;;1.90;;
4102;SDS011;2065;49.790;9.620;2022-10-16T10:53:21;3.10;;;1.97;;
4102;SDS011;2065;49.790;9.620;2022-10-16T10:56:00;5.03;;;2.30;;
4102;SDS011;2065;49.790;9.620;2022-10-16T10:58:53;5.00;;;2.10;;
4102;SDS011;2065;49.790;9.620;2022-10-16T11:01:30;2.50;;;1.73;;
4102;SDS011;2065;49.790;9.620;2022-10-16T11:07:15;5.40;;;2.50;;
4102;SDS011;2065;49.790;9.620;2022-10-16T11:09:45;3.33;;;2.40;;
4102;SDS011;2065;49.790;9.620;2022-10-16T11:12:16;6.53;;;3.30;;
4102;SDS011;2065;49.790;9.620;2022-10-16T11:14:48;5.00;;;3.50;;
4102;SDS011;2065;49.790;9.620;2022-10-16T11:17:23;3.83;;;2.70;;
4102;SDS011;2065;49.790;9.620;2022-10-16T11:19:56;6.20;;;3.00;;
4102;SDS011;2065;49.790;9.620;2022-10-16T11:22:30;13.10;;;4.70;;
4102;SDS011;2065;49.790;9.620;2022-10-16T11:25:04;7.03;;;2.33;;
4102;SDS011;2065;49.790;9.620;2022-10-16T11:27:42;3.30;;;1.97;;
4102;SDS011;2065;49.790;9.620;2022-10-16T11:30:14;2.00;;;1.70;;
4102;SDS011;2065;49.790;9.620;2022-10-16T11:32:57;2.80;;;1.60;;
4102;SDS011;2065;49.790;9.620;2022-10-16T11:35:33;2.53;;;1.63;;
4102;SDS011;2065;49.790;9.620;2022-10-16T11:38:09;2.73;;;2.10;;
4102;SDS011;2065;49.790;9.620;2022-10-16T11:40:41;1.93;;;1.83;;
4102;SDS011;2065;49.790;9.620;2022-10-16T11:43:14;2.33;;;1.90;;
4102;SDS011;2065;49.790;9.620;2022-10-16T11:45:49;3.43;;;2.10;;
4102;SDS011;2065;49.790;9.620;2022-10-16T11:48:21;3.07;;;1.80;;
4102;SDS011;2065;49.790;9.620;2022-10-16T11:50:52;5.77;;;1.97;;
4102;SDS011;2065;49.790;9.620;2022-10-16T11:53:23;1.90;;;1.60;;
4102;SDS011;2065;49.790;9.620;2022-10-16T11:56:05;2.70;;;1.77;;
4102;SDS011;2065;49.790;9.620;2022-10-16T11:58:33;1.87;;;1.60;;
4102;SDS011;2065;49.790;9.620;2022-10-16T12:01:07;1.70;;;1.47;;
4102;SDS011;2065;49.790;9.620;2022-10-16T12:03:45;1.47;;;1.37;;
4102;SDS011;2065;49.790;9.620;2022-10-16T12:06:22;3.63;;;1.40;;
4102;SDS011;2065;49.790;9.620;2022-10-16T12:08:59;9.83;;;1.60;;
4102;SDS011;2065;49.790;9.620;2022-10-16T12:11:34;2.00;;;1.53;;
4102;SDS011;2065;49.790;9.620;2022-10-16T12:14:04;1.50;;;1.40;;
4102;SDS011;2065;49.790;9.620;2022-10-16T12:16:34;1.50;;;1.40;;
4102;SDS011;2065;49.790;9.620;2022-10-16T12:19:10;2.50;;;1.50;;
4102;SDS011;2065;49.790;9.620;2022-10-16T12:21:38;7.20;;;2.00;;
4102;SDS011;2065;49.790;9.620;2022-10-16T12:24:18;3.63;;;1.67;;
4102;SDS011;2065;49.790;9.620;2022-10-16T12:26:48;2.13;;;1.60;;
4102;SDS011;2065;49.790;9.620;2022-10-16T12:29:21;2.60;;;1.90;;
4102;SDS011;2065;49.790;9.620;2022-10-16T12:31:54;2.20;;;1.43;;
4102;SDS011;2065;49.790;9.620;2022-10-16T12:34:23;3.27;;;1.70;;
4102;SDS011;2065;49.790;9.620;2022-10-16T12:36:53;1.60;;;1.50;;
4102;SDS011;2065;49.790;9.620;2022-10-16T12:39:23;1.73;;;1.50;;
4102;SDS011;2065;49.790;9.620;2022-10-16T12:42:00;2.03;;;1.60;;
4102;SDS011;2065;49.790;9.620;2022-10-16T12:44:32;3.00;;;1.77;;
4102;SDS011;2065;49.790;9.620;2022-10-16T12:47:00;3.33;;;2.30;;
4102;SDS011;2065;49.790;9.620;2022-10-16T12:49:31;2.53;;;1.60;;
4102;SDS011;2065;49.790;9.620;2022-10-16T12:52:03;1.93;;;1.60;;
4102;SDS011;2065;49.790;9.620;2022-10-16T12:54:34;2.43;;;1.80;;
4102;SDS011;2065;49.790;9.620;2022-10-16T12:57:09;2.23;;;1.50;;
4102;SDS011;2065;49.790;9.620;2022-10-16T12:59:50;2.20;;;1.40;;
4102;SDS011;2065;49.790;9.620;2022-10-16T13:02:34;3.67;;;1.43;;
4102;SDS011;2065;49.790;9.620;2022-10-16T13:05:34;1.60;;;1.47;;
4102;SDS011;2065;49.790;9.620;2022-10-16T13:08:18;2.17;;;2.00;;
4102;SDS011;2065;49.790;9.620;2022-10-16T13:11:03;1.73;;;1.63;;
4102;SDS011;2065;49.790;9.620;2022-10-16T13:13:44;6.10;;;2.13;;
4102;SDS011;2065;49.790;9.620;2022-10-16T13:16:24;1.83;;;1.60;;
4102;SDS011;2065;49.790;9.620;2022-10-16T13:19:00;5.20;;;2.03;;
4102;SDS011;2065;49.790;9.620;2022-10-16T13:21:38;1.97;;;1.70;;
4102;SDS011;2065;49.790;9.620;2022-10-16T13:24:14;2.53;;;1.77;;
4102;SDS011;2065;49.790;9.620;2022-10-16T13:26:52;1.70;;;1.60;;
4102;SDS011;2065;49.790;9.620;2022-10-16T13:29:23;3.10;;;1.97;;
4102;SDS011;2065;49.790;9.620;2022-10-16T13:31:55;4.03;;;2.00;;
4102;SDS011;2065;49.790;9.620;2022-10-16T13:34:24;2.23;;;1.60;;
4102;SDS011;2065;49.790;9.620;2022-10-16T13:36:52;1.83;;;1.67;;
4102;SDS011;2065;49.790;9.620;2022-10-16T13:39:23;4.50;;;1.80;;
4102;SDS011;2065;49.790;9.620;2022-10-16T13:42:03;3.00;;;2.30;;
4102;SDS011;2065;49.790;9.620;2022-10-16T13:44:35;2.00;;;1.90;;
4102;SDS011;2065;49.790;9.620;2022-10-16T13:47:11;3.90;;;1.80;;
4102;SDS011;2065;49.790;9.620;2022-10-16T13:49:42;1.80;;;1.70;;
4102;SDS011;2065;49.790;9.620;2022-10-16T13:52:15;3.73;;;2.00;;
4102;SDS011;2065;49.790;9.620;2022-10-16T13:54:44;3.80;;;1.90;;
4102;SDS011;2065;49.790;9.620;2022-10-16T13:57:13;3.10;;;1.90;;
4102;SDS011;2065;49.790;9.620;2022-10-16T13:59:41;3.13;;;2.17;;
4102;SDS011;2065;49.790;9.620;2022-10-16T14:02:14;4.53;;;2.77;;
4102;SDS011;2065;49.790;9.620;2022-10-16T14:04:46;11.13;;;4.50;;
4102;SDS011;2065;49.790;9.620;2022-10-16T14:07:23;3.60;;;3.00;;
4102;SDS011;2065;49.790;9.620;2022-10-16T14:09:52;5.47;;;4.10;;
4102;SDS011;2065;49.790;9.620;2022-10-16T14:12:22;5.60;;;4.00;;
4102;SDS011;2065;49.790;9.620;2022-10-16T14:14:50;3.80;;;2.90;;
4102;SDS011;2065;49.790;9.620;2022-10-16T14:17:20;3.37;;;2.10;;
4102;SDS011;2065;49.790;9.620;2022-10-16T14:19:51;5.60;;;2.27;;
4102;SDS011;2065;49.790;9.620;2022-10-16T14:22:30;2.70;;;2.30;;
4102;SDS011;2065;49.790;9.620;2022-10-16T14:25:00;6.00;;;2.83;;
4102;SDS011;2065;49.790;9.620;2022-10-16T14:27:31;3.20;;;2.23;;
4102;SDS011;2065;49.790;9.620;2022-10-16T14:30:12;2.47;;;2.27;;
4102;SDS011;2065;49.790;9.620;2022-10-16T14:32:52;4.27;;;2.50;;
4102;SDS011;2065;49.790;9.620;2022-10-16T14:35:28;3.53;;;2.40;;
4102;SDS011;2065;49.790;9.620;2022-10-16T14:37:57;25.07;;;11.87;;
4102;SDS011;2065;49.790;9.620;2022-10-16T14:40:26;4.10;;;3.43;;
4102;SDS011;2065;49.790;9.620;2022-10-16T14:42:56;4.03;;;2.43;;
4102;SDS011;2065;49.790;9.620;2022-10-16T14:45:24;6.33;;;2.47;;
4102;SDS011;2065;49.790;9.620;2022-10-16T14:47:54;6.20;;;2.40;;
4102;SDS011;2065;49.790;9.620;2022-10-16T14:50:24;1.87;;;1.77;;
4102;SDS011;2065;49.790;9.620;2022-10-16T14:52:51;7.70;;;2.57;;
4102;SDS011;2065;49.790;9.620;2022-10-16T14:55:18;2.80;;;1.97;;
4102;SDS011;2065;49.790;9.620;2022-10-16T14:57:46;2.30;;;2.20;;
4102;SDS011;2065;49.790;9.620;2022-10-16T15:00:16;2.30;;;2.10;;
4102;SDS011;2065;49.790;9.620;2022-10-16T15:02:46;4.37;;;3.83;;
4102;SDS011;2065;49.790;9.620;2022-10-16T15:05:15;3.90;;;3.60;;
4102;SDS011;2065;49.790;9.620;2022-10-16T15:07:44;4.40;;;2.30;;
4102;SDS011;2065;49.790;9.620;2022-10-16T15:10:12;2.67;;;2.00;;
4102;SDS011;2065;49.790;9.620;2022-10-16T15:12:40;3.70;;;2.03;;
4102;SDS011;2065;49.790;9.620;2022-10-16T15:15:23;3.50;;;3.20;;
4102;SDS011;2065;49.790;9.620;2022-10-16T15:17:55;3.47;;;3.20;;
4102;SDS011;2065;49.790;9.620;2022-10-16T15:20:26;3.07;;;2.47;;
4102;SDS011;2065;49.790;9.620;2022-10-16T15:22:55;4.63;;;2.10;;
4102;SDS011;2065;49.790;9.620;2022-10-16T15:25:26;2.30;;;2.10;;
4102;SDS011;2065;49.790;9.620;2022-10-16T15:27:57;3.37;;;2.27;;
4102;SDS011;2065;49.790;9.620;2022-10-16T15:30:26;2.50;;;2.30;;
4102;SDS011;2065;49.790;9.620;2022-10-16T15:32:54;3.77;;;2.30;;
4102;SDS011;2065;49.790;9.620;2022-10-16T15:35:21;4.00;;;2.60;;
4102;SDS011;2065;49.790;9.620;2022-10-16T15:37:48;3.20;;;2.97;;
4102;SDS011;2065;49.790;9.620;2022-10-16T15:40:16;3.77;;;2.40;;
4102;SDS011;2065;49.790;9.620;2022-10-16T15:42:43;7.20;;;2.80;;